Pedernales — WDG6856 — position and weather

sailwx.info

Track history (hours):
 
Tides and Currents Weather Stations Pressure Air Temp Water Temp Dewpoint Dewpoint Depression Visibility Wind Speed Wind Dir Waves Ship Positions

Pedernales

Owner: Higman Barge Lines, Inc., Orange, TX. More information available from US FCC via Universal Licensing System and Coast Guard Vessel Documentation Center.

Last reported at 2017-Nov-17 09:04 UTC. Time now 2017-Nov-21 19:24 UTC.
Position N 30°03' W 093°44'.

Length 24 m; draft 3 m.

Type: Towing. MMSI: 367561410.

Date/timePositionNaut miles runAvg speedWind from/ knotsBaromVisibWave heightAir tempDewpointWater temp
2017-Nov-17 09:04N 30°03' W 093°44'5 6.5
2017-Nov-17 08:15N 30°03' W 093°38'3 6.6
2017-Nov-17 07:49N 30°04' W 093°35'2 6.7
2017-Nov-17 07:30N 30°04' W 093°32'3 6.7
2017-Nov-17 07:00N 30°04' W 093°28'3 6.7
2017-Nov-17 06:30N 30°04' W 093°25'3 5.7
2017-Nov-17 06:00N 30°04' W 093°21'2 3.6
2017-Nov-17 05:30N 30°05' W 093°20'0 0.7
2017-Nov-17 05:00N 30°05' W 093°20'2 3.7
2017-Nov-17 04:30N 30°05' W 093°18'1 1.9
2017-Nov-17 04:00N 30°05' W 093°17'1 1.2
2017-Nov-17 03:30N 30°04' W 093°16'0 0.1
2017-Nov-17 03:00N 30°04' W 093°16'1 2.2
2017-Nov-17 02:30N 30°03' W 093°16'3 5.0
2017-Nov-17 02:00N 30°01' W 093°14'2 4.9
2017-Nov-17 01:30N 29°59' W 093°12'3 6.3
2017-Nov-17 01:00N 29°57' W 093°10'3 5.8
2017-Nov-17 00:30N 29°56' W 093°07'3 5.9
2017-Nov-17 00:00N 29°56' W 093°03'35 6.0
2017-Nov-16 18:06N 29°52' W 092°23'2 6.1
2017-Nov-16 17:51N 29°51' W 092°22'2 5.2
2017-Nov-16 17:30N 29°51' W 092°20'3 5.3
2017-Nov-16 17:00N 29°49' W 092°17'3 6.2
2017-Nov-16 16:30N 29°48' W 092°14'2 4.7
2017-Nov-16 16:00N 29°47' W 092°12'0 0.3
2017-Nov-16 15:30N 29°47' W 092°11'0 0.4
2017-Nov-16 15:00N 29°47' W 092°11'3 5.7
2017-Nov-16 14:30N 29°47' W 092°08'4 7.4
2017-Nov-16 14:00N 29°48' W 092°04'3 6.7
2017-Nov-16 13:30N 29°50' W 092°00'3 6.1
2017-Nov-16 13:00N 29°51' W 091°57'3 6.5
2017-Nov-16 12:30N 29°51' W 091°53'2 4.7
2017-Nov-16 12:00N 29°51' W 091°51'0 0.5
2017-Nov-16 11:30N 29°50' W 091°50'0 0.0
2017-Nov-16 11:00N 29°50' W 091°50'0 0.2
2017-Nov-16 08:41N 29°50' W 091°50'1 5.3
2017-Nov-16 08:26N 29°49' W 091°49'45 5.4
2017-Nov-16 00:04N 29°37' W 090°59'0 6.1
2017-Nov-16 00:00N 29°37' W 090°59'3 6.2
2017-Nov-15 23:30N 29°34' W 090°57'3 6.8
2017-Nov-15 23:00N 29°33' W 090°53'3 6.6
2017-Nov-15 22:30N 29°32' W 090°50'3 6.7
2017-Nov-15 22:00N 29°32' W 090°46'3 5.8
2017-Nov-15 21:31N 29°34' W 090°43'3 5.4
2017-Nov-15 21:00N 29°37' W 090°42'3 5.8
2017-Nov-15 20:30N 29°36' W 090°39'3 5.2
2017-Nov-15 20:00N 29°35' W 090°36'1 2.7
2017-Nov-15 19:30N 29°34' W 090°35'4 6.0
2017-Nov-15 18:53N 29°34' W 090°31'3 6.7
2017-Nov-15 18:22N 29°33' W 090°27'24 1.7
2017-Nov-15 04:16N 29°57' W 090°19'3 9.0
2017-Nov-15 03:54N 29°56' W 090°22'3 6.7
2017-Nov-15 03:30N 29°59' W 090°24'0 0.1
2017-Nov-15 02:30N 29°59' W 090°24'0 0.0
2017-Nov-14 12:36N 29°59' W 090°24'0 0.0
2017-Nov-14 12:10N 29°59' W 090°24'0 0.0
2017-Nov-14 08:22N 29°59' W 090°24'3 1.2
2017-Nov-14 05:58N 29°56' W 090°22'80 2.2
2017-Nov-12 17:08N 29°51' W 091°54'1 5.7
2017-Nov-12 16:58N 29°51' W 091°55'2 5.4
2017-Nov-12 16:30N 29°50' W 091°58'3 5.2
2017-Nov-12 16:00N 29°49' W 092°01'3 5.2
2017-Nov-12 15:30N 29°48' W 092°04'2 4.4
2017-Nov-12 15:00N 29°48' W 092°06'3 5.1
2017-Nov-12 14:28N 29°47' W 092°09'2 3.5
2017-Nov-12 13:56N 29°47' W 092°11'1 2.4
2017-Nov-12 13:28N 29°47' W 092°13'1 2.1
2017-Nov-12 13:00N 29°48' W 092°14'0 0.0
2017-Nov-12 12:30N 29°48' W 092°14'0 0.1
2017-Nov-12 11:54N 29°48' W 092°14'1 0.7
2017-Nov-12 10:43N 29°48' W 092°15'0 1.8
2017-Nov-12 10:29N 29°48' W 092°15'2 4.6
2017-Nov-12 09:59N 29°49' W 092°17'2 4.4
2017-Nov-12 09:29N 29°50' W 092°20'3 4.5
2017-Nov-12 08:51N 29°52' W 092°22'2 4.7
2017-Nov-12 08:25N 29°53' W 092°24'  
2017-Nov-08 08:17N 30°03' W 093°42'2 7.2
2017-Nov-08 07:57N 30°04' W 093°39'3 5.7
2017-Nov-08 07:30N 30°04' W 093°36'3 6.8
2017-Nov-08 07:00N 30°04' W 093°32'3 6.5
2017-Nov-08 06:30N 30°04' W 093°29'3 6.7
2017-Nov-08 06:00N 30°04' W 093°25'3 5.1
2017-Nov-08 05:30N 30°04' W 093°22'2 3.1
2017-Nov-08 05:00N 30°05' W 093°20'2 4.5
2017-Nov-08 04:31N 30°06' W 093°19'1 2.9
2017-Nov-08 04:00N 30°05' W 093°17'1 1.9
2017-Nov-08 03:30N 30°05' W 093°17'1 2.0
2017-Nov-08 03:00N 30°04' W 093°16'0 0.1
2017-Nov-08 02:30N 30°04' W 093°16'0 0.0
2017-Nov-08 02:00N 30°04' W 093°16'0 0.0
2017-Nov-08 01:30N 30°04' W 093°16'0 0.0
2017-Nov-08 01:00N 30°04' W 093°16'0 0.0
2017-Nov-08 00:30N 30°04' W 093°16'0 0.0
2017-Nov-08 00:00N 30°04' W 093°16'0 0.0
2017-Nov-07 23:30N 30°04' W 093°16'0 0.0
2017-Nov-07 23:00N 30°04' W 093°16'0 0.0
2017-Nov-07 22:30N 30°04' W 093°16'0 0.0
2017-Nov-07 22:00N 30°04' W 093°16'0 0.0
2017-Nov-07 21:30N 30°04' W 093°16'0 0.0
2017-Nov-07 21:00N 30°04' W 093°16'0 0.0
2017-Nov-07 20:30N 30°04' W 093°16'0 0.0
2017-Nov-07 20:00N 30°04' W 093°16'0 0.0
2017-Nov-07 19:30N 30°04' W 093°16'0 0.0
2017-Nov-07 19:00N 30°04' W 093°16'0 0.0
2017-Nov-07 18:30N 30°04' W 093°16'0 0.0
2017-Nov-07 18:00N 30°04' W 093°16'0 0.0
2017-Nov-07 17:30N 30°04' W 093°16'0 0.0
2017-Nov-07 17:00N 30°04' W 093°16'0 0.0
2017-Nov-07 16:30N 30°04' W 093°16'0 0.0
2017-Nov-07 16:00N 30°04' W 093°16'3 5.2
2017-Nov-07 15:30N 30°02' W 093°14'3 6.4
2017-Nov-07 15:00N 29°59' W 093°12'3 6.7
2017-Nov-07 14:30N 29°56' W 093°10'3 6.5
2017-Nov-07 14:00N 29°56' W 093°06'  
Track history (hours):
 
Tides and Currents Weather Stations Pressure Air Temp Water Temp Dewpoint Dewpoint Depression Visibility Wind Speed Wind Dir Waves Ship Positions

Pedernales

Owner: Higman Barge Lines, Inc., Orange, TX. More information available from US FCC via Universal Licensing System and Coast Guard Vessel Documentation Center.

Last reported at 2017-Nov-17 09:04 UTC. Time now 2017-Nov-21 19:24 UTC.
Position N 30°03' W 093°44'.

Length 24 m; draft 3 m.

Type: Towing. MMSI: 367561410.

Date/timePositionNaut miles runAvg speedWind from/ knotsBaromVisibWave heightAir tempDewpointWater temp
2017-Nov-17 09:04N 30°03' W 093°44'5 6.5
2017-Nov-17 08:15N 30°03' W 093°38'3 6.6
2017-Nov-17 07:49N 30°04' W 093°35'2 6.7
2017-Nov-17 07:30N 30°04' W 093°32'3 6.7
2017-Nov-17 07:00N 30°04' W 093°28'3 6.7
2017-Nov-17 06:30N 30°04' W 093°25'3 5.7
2017-Nov-17 06:00N 30°04' W 093°21'2 3.6
2017-Nov-17 05:30N 30°05' W 093°20'0 0.7
2017-Nov-17 05:00N 30°05' W 093°20'2 3.7
2017-Nov-17 04:30N 30°05' W 093°18'1 1.9
2017-Nov-17 04:00N 30°05' W 093°17'1 1.2
2017-Nov-17 03:30N 30°04' W 093°16'0 0.1
2017-Nov-17 03:00N 30°04' W 093°16'1 2.2
2017-Nov-17 02:30N 30°03' W 093°16'3 5.0
2017-Nov-17 02:00N 30°01' W 093°14'2 4.9
2017-Nov-17 01:30N 29°59' W 093°12'3 6.3
2017-Nov-17 01:00N 29°57' W 093°10'3 5.8
2017-Nov-17 00:30N 29°56' W 093°07'3 5.9
2017-Nov-17 00:00N 29°56' W 093°03'35 6.0
2017-Nov-16 18:06N 29°52' W 092°23'2 6.1
2017-Nov-16 17:51N 29°51' W 092°22'2 5.2
2017-Nov-16 17:30N 29°51' W 092°20'3 5.3
2017-Nov-16 17:00N 29°49' W 092°17'3 6.2
2017-Nov-16 16:30N 29°48' W 092°14'2 4.7
2017-Nov-16 16:00N 29°47' W 092°12'0 0.3
2017-Nov-16 15:30N 29°47' W 092°11'0 0.4
2017-Nov-16 15:00N 29°47' W 092°11'3 5.7
2017-Nov-16 14:30N 29°47' W 092°08'4 7.4
2017-Nov-16 14:00N 29°48' W 092°04'3 6.7
2017-Nov-16 13:30N 29°50' W 092°00'3 6.1
2017-Nov-16 13:00N 29°51' W 091°57'3 6.5
2017-Nov-16 12:30N 29°51' W 091°53'2 4.7
2017-Nov-16 12:00N 29°51' W 091°51'0 0.5
2017-Nov-16 11:30N 29°50' W 091°50'0 0.0
2017-Nov-16 11:00N 29°50' W 091°50'0 0.2
2017-Nov-16 08:41N 29°50' W 091°50'1 5.3
2017-Nov-16 08:26N 29°49' W 091°49'45 5.4
2017-Nov-16 00:04N 29°37' W 090°59'0 6.1
2017-Nov-16 00:00N 29°37' W 090°59'3 6.2
2017-Nov-15 23:30N 29°34' W 090°57'3 6.8
2017-Nov-15 23:00N 29°33' W 090°53'3 6.6
2017-Nov-15 22:30N 29°32' W 090°50'3 6.7
2017-Nov-15 22:00N 29°32' W 090°46'3 5.8
2017-Nov-15 21:31N 29°34' W 090°43'3 5.4
2017-Nov-15 21:00N 29°37' W 090°42'3 5.8
2017-Nov-15 20:30N 29°36' W 090°39'3 5.2
2017-Nov-15 20:00N 29°35' W 090°36'1 2.7
2017-Nov-15 19:30N 29°34' W 090°35'4 6.0
2017-Nov-15 18:53N 29°34' W 090°31'3 6.7
2017-Nov-15 18:22N 29°33' W 090°27'24 1.7
2017-Nov-15 04:16N 29°57' W 090°19'3 9.0
2017-Nov-15 03:54N 29°56' W 090°22'3 6.7
2017-Nov-15 03:30N 29°59' W 090°24'0 0.1
2017-Nov-15 02:30N 29°59' W 090°24'0 0.0
2017-Nov-14 12:36N 29°59' W 090°24'0 0.0
2017-Nov-14 12:10N 29°59' W 090°24'0 0.0
2017-Nov-14 08:22N 29°59' W 090°24'3 1.2
2017-Nov-14 05:58N 29°56' W 090°22'80 2.2
2017-Nov-12 17:08N 29°51' W 091°54'1 5.7
2017-Nov-12 16:58N 29°51' W 091°55'2 5.4
2017-Nov-12 16:30N 29°50' W 091°58'3 5.2
2017-Nov-12 16:00N 29°49' W 092°01'3 5.2
2017-Nov-12 15:30N 29°48' W 092°04'2 4.4
2017-Nov-12 15:00N 29°48' W 092°06'3 5.1
2017-Nov-12 14:28N 29°47' W 092°09'2 3.5
2017-Nov-12 13:56N 29°47' W 092°11'1 2.4
2017-Nov-12 13:28N 29°47' W 092°13'1 2.1
2017-Nov-12 13:00N 29°48' W 092°14'0 0.0
2017-Nov-12 12:30N 29°48' W 092°14'0 0.1
2017-Nov-12 11:54N 29°48' W 092°14'1 0.7
2017-Nov-12 10:43N 29°48' W 092°15'0 1.8
2017-Nov-12 10:29N 29°48' W 092°15'2 4.6
2017-Nov-12 09:59N 29°49' W 092°17'2 4.4
2017-Nov-12 09:29N 29°50' W 092°20'3 4.5
2017-Nov-12 08:51N 29°52' W 092°22'2 4.7
2017-Nov-12 08:25N 29°53' W 092°24'  
2017-Nov-08 08:17N 30°03' W 093°42'2 7.2
2017-Nov-08 07:57N 30°04' W 093°39'3 5.7
2017-Nov-08 07:30N 30°04' W 093°36'3 6.8
2017-Nov-08 07:00N 30°04' W 093°32'3 6.5
2017-Nov-08 06:30N 30°04' W 093°29'3 6.7
2017-Nov-08 06:00N 30°04' W 093°25'3 5.1
2017-Nov-08 05:30N 30°04' W 093°22'2 3.1
2017-Nov-08 05:00N 30°05' W 093°20'2 4.5
2017-Nov-08 04:31N 30°06' W 093°19'1 2.9
2017-Nov-08 04:00N 30°05' W 093°17'1 1.9
2017-Nov-08 03:30N 30°05' W 093°17'1 2.0
2017-Nov-08 03:00N 30°04' W 093°16'0 0.1
2017-Nov-08 02:30N 30°04' W 093°16'0 0.0
2017-Nov-08 02:00N 30°04' W 093°16'0 0.0
2017-Nov-08 01:30N 30°04' W 093°16'0 0.0
2017-Nov-08 01:00N 30°04' W 093°16'0 0.0
2017-Nov-08 00:30N 30°04' W 093°16'0 0.0
2017-Nov-08 00:00N 30°04' W 093°16'0 0.0
2017-Nov-07 23:30N 30°04' W 093°16'0 0.0
2017-Nov-07 23:00N 30°04' W 093°16'0 0.0
2017-Nov-07 22:30N 30°04' W 093°16'0 0.0
2017-Nov-07 22:00N 30°04' W 093°16'0 0.0
2017-Nov-07 21:30N 30°04' W 093°16'0 0.0
2017-Nov-07 21:00N 30°04' W 093°16'0 0.0
2017-Nov-07 20:30N 30°04' W 093°16'0 0.0
2017-Nov-07 20:00N 30°04' W 093°16'0 0.0
2017-Nov-07 19:30N 30°04' W 093°16'0 0.0
2017-Nov-07 19:00N 30°04' W 093°16'0 0.0
2017-Nov-07 18:30N 30°04' W 093°16'0 0.0
2017-Nov-07 18:00N 30°04' W 093°16'0 0.0
2017-Nov-07 17:30N 30°04' W 093°16'0 0.0
2017-Nov-07 17:00N 30°04' W 093°16'0 0.0
2017-Nov-07 16:30N 30°04' W 093°16'0 0.0
2017-Nov-07 16:00N 30°04' W 093°16'3 5.2
2017-Nov-07 15:30N 30°02' W 093°14'3 6.4
2017-Nov-07 15:00N 29°59' W 093°12'3 6.7
2017-Nov-07 14:30N 29°56' W 093°10'3 6.5
2017-Nov-07 14:00N 29°56' W 093°06'  

Dump ship's entire track history